createdAt,value
2023-05-02T00:01:58.233Z,11.22
2023-05-02T00:04:25.963Z,11.18
2023-05-02T00:06:53.753Z,11.17
2023-05-02T00:09:21.929Z,11.16
2023-05-02T00:11:49.520Z,11.17
2023-05-02T00:14:16.915Z,11.18
2023-05-02T00:16:44.329Z,11.23
2023-05-02T00:19:12.488Z,11.20
2023-05-02T00:21:40.000Z,11.18
2023-05-02T00:24:07.571Z,11.11
2023-05-02T00:26:34.977Z,11.11
2023-05-02T00:29:02.584Z,11.13
2023-05-02T00:31:30.073Z,11.14
2023-05-02T00:33:57.561Z,11.08
2023-05-02T00:36:25.184Z,11.08
2023-05-02T00:38:52.630Z,11.05
2023-05-02T00:41:20.105Z,11.07
2023-05-02T00:43:47.646Z,11.01
2023-05-02T00:46:15.562Z,11.01
2023-05-02T00:48:44.105Z,11.01
2023-05-02T00:51:13.533Z,11.01
2023-05-02T00:53:41.630Z,10.99
2023-05-02T00:56:10.071Z,11.06
2023-05-02T00:58:41.103Z,11.09
2023-05-02T01:01:27.249Z,11.08
2023-05-02T01:04:02.505Z,11.12
2023-05-02T01:06:42.495Z,11.08
2023-05-02T01:09:47.853Z,11.11
2023-05-02T01:12:18.115Z,11.18
2023-05-02T01:14:50.934Z,11.18
2023-05-02T01:17:21.491Z,11.21
2023-05-02T01:19:55.126Z,11.23
2023-05-02T01:22:24.851Z,11.16
2023-05-02T01:25:06.505Z,11.19
2023-05-02T01:27:51.741Z,11.18
2023-05-02T01:30:21.568Z,11.17
2023-05-02T01:32:52.559Z,11.11
2023-05-02T01:35:22.616Z,11.18
2023-05-02T01:37:52.908Z,11.17
2023-05-02T01:40:22.839Z,11.20
2023-05-02T01:42:52.136Z,11.21
2023-05-02T01:45:22.017Z,11.24
2023-05-02T01:47:51.622Z,11.18
2023-05-02T01:50:23.425Z,11.16
2023-05-02T01:52:56.285Z,11.19
2023-05-02T01:55:25.970Z,11.13
2023-05-02T01:57:55.841Z,11.16
2023-05-02T02:00:25.856Z,11.09
2023-05-02T02:02:56.245Z,11.05
2023-05-02T02:05:25.180Z,10.94
2023-05-02T02:07:52.753Z,10.95
2023-05-02T02:10:20.647Z,10.95
2023-05-02T02:12:58.940Z,10.98
2023-05-02T02:15:29.202Z,11.03
2023-05-02T02:18:12.175Z,11.08
2023-05-02T02:20:44.029Z,11.03
2023-05-02T02:23:14.845Z,11.01
2023-05-02T02:25:45.007Z,11.01
2023-05-02T02:28:12.947Z,11.07
2023-05-02T02:30:40.443Z,11.18
2023-05-02T02:33:08.056Z,11.20
2023-05-02T02:35:42.491Z,11.19
2023-05-02T02:38:49.074Z,11.16
2023-05-02T02:41:22.522Z,11.19
2023-05-02T02:44:02.247Z,11.16
2023-05-02T02:46:51.221Z,11.16
2023-05-02T02:49:32.102Z,11.18
2023-05-02T02:52:29.393Z,11.19
2023-05-02T02:55:07.858Z,11.17
2023-05-02T02:57:46.199Z,11.19
2023-05-02T03:00:20.671Z,11.16
2023-05-02T03:02:48.958Z,11.12
2023-05-02T03:05:17.720Z,11.14
2023-05-02T03:07:45.391Z,11.17
2023-05-02T03:10:12.888Z,11.13
2023-05-02T03:12:41.498Z,11.17
2023-05-02T03:15:34.295Z,11.13
2023-05-02T03:18:01.987Z,11.17
2023-05-02T03:20:29.835Z,11.18
2023-05-02T03:22:57.457Z,11.21
2023-05-02T03:25:24.934Z,11.09
2023-05-02T03:27:53.326Z,11.07
2023-05-02T03:30:20.788Z,11.08
2023-05-02T03:32:48.392Z,11.08
2023-05-02T03:35:16.964Z,10.99
2023-05-02T03:37:46.750Z,11.01
2023-05-02T03:40:14.991Z,11.03
2023-05-02T03:42:42.656Z,10.99
2023-05-02T03:45:22.091Z,10.98
2023-05-02T03:47:51.636Z,11.01
2023-05-02T03:50:19.409Z,10.96
2023-05-02T03:52:49.242Z,10.96
2023-05-02T03:55:21.710Z,10.95
2023-05-02T03:57:49.878Z,10.95
2023-05-02T04:00:17.964Z,10.93
2023-05-02T04:02:52.839Z,10.92
2023-05-02T04:05:23.869Z,10.95
2023-05-02T04:07:51.520Z,10.91
2023-05-02T04:10:19.193Z,10.86
2023-05-02T04:12:53.353Z,10.91
2023-05-02T04:15:21.594Z,10.87
2023-05-02T04:17:51.463Z,10.96
2023-05-02T04:20:20.389Z,10.96
2023-05-02T04:22:51.705Z,10.98
2023-05-02T04:25:19.324Z,10.86
2023-05-02T04:27:47.574Z,10.90
2023-05-02T04:30:18.499Z,10.99
2023-05-02T04:32:55.067Z,10.91
2023-05-02T04:35:23.661Z,10.96
2023-05-02T04:37:51.259Z,10.95
2023-05-02T04:40:18.971Z,10.98
2023-05-02T04:42:49.819Z,11.07
2023-05-02T04:45:20.959Z,11.09
2023-05-02T04:47:49.372Z,11.19
2023-05-02T04:50:16.781Z,11.18
2023-05-02T04:52:44.962Z,11.15
2023-05-02T04:55:13.019Z,11.25
2023-05-02T04:57:41.283Z,11.33
2023-05-02T05:00:13.174Z,11.40
2023-05-02T05:02:40.734Z,11.55
2023-05-02T05:05:09.863Z,11.68
2023-05-02T05:07:37.601Z,11.81
2023-05-02T05:10:05.830Z,11.83
2023-05-02T05:12:41.273Z,11.82
2023-05-02T05:15:11.817Z,11.83
2023-05-02T05:17:42.606Z,11.97
2023-05-02T05:20:10.412Z,12.00
2023-05-02T05:22:42.670Z,12.01
2023-05-02T05:25:12.319Z,12.03
2023-05-02T05:27:40.593Z,12.12
2023-05-02T05:30:10.249Z,12.23
2023-05-02T05:32:38.119Z,12.47
2023-05-02T05:35:06.590Z,12.66
2023-05-02T05:37:34.747Z,12.75
2023-05-02T05:40:03.473Z,12.79
2023-05-02T05:42:31.194Z,12.72
2023-05-02T05:45:02.929Z,12.39
2023-05-02T05:47:30.651Z,12.40
2023-05-02T05:49:58.864Z,12.52
2023-05-02T05:52:30.229Z,12.66
2023-05-02T05:55:00.272Z,12.81
2023-05-02T05:57:29.338Z,12.78
2023-05-02T05:59:57.875Z,12.63
2023-05-02T06:02:26.636Z,12.55
2023-05-02T06:04:54.119Z,12.63
2023-05-02T06:07:24.011Z,12.76
2023-05-02T06:09:51.849Z,12.77
2023-05-02T06:12:19.328Z,13.00
2023-05-02T06:14:47.655Z,12.99
2023-05-02T06:17:15.665Z,13.03
2023-05-02T06:19:43.209Z,13.07
2023-05-02T06:22:13.812Z,13.12
2023-05-02T06:24:41.302Z,13.12
2023-05-02T06:27:08.777Z,13.12
2023-05-02T06:29:36.240Z,13.16
2023-05-02T06:32:04.345Z,13.23
2023-05-02T06:34:35.048Z,13.25
2023-05-02T06:37:02.522Z,13.50
2023-05-02T06:39:30.143Z,13.67
2023-05-02T06:41:58.615Z,13.85
2023-05-02T06:44:27.279Z,14.13
2023-05-02T06:46:56.031Z,14.35
2023-05-02T06:49:23.783Z,14.38
2023-05-02T06:51:51.232Z,14.59
2023-05-02T06:54:18.804Z,14.81
2023-05-02T06:56:46.307Z,15.01
2023-05-02T06:59:13.786Z,15.14
2023-05-02T07:01:41.538Z,15.05
2023-05-02T07:04:09.170Z,15.24
2023-05-02T07:06:36.872Z,15.39
2023-05-02T07:09:04.301Z,15.44
2023-05-02T07:11:31.849Z,15.28
2023-05-02T07:13:59.234Z,15.25
2023-05-02T07:16:26.782Z,15.32
2023-05-02T07:18:54.307Z,15.31
2023-05-02T07:21:21.871Z,15.43
2023-05-02T07:23:49.324Z,15.39
2023-05-02T07:26:18.950Z,15.36
2023-05-02T07:28:46.543Z,15.48
2023-05-02T07:31:14.143Z,15.82
2023-05-02T07:33:41.628Z,15.77
2023-05-02T07:36:09.142Z,15.69
2023-05-02T07:38:36.564Z,15.71
2023-05-02T07:41:04.020Z,15.96
2023-05-02T07:43:31.629Z,15.82
2023-05-02T07:45:59.043Z,15.67
2023-05-02T07:48:27.895Z,15.62
2023-05-02T07:50:55.615Z,15.68
2023-05-02T07:53:23.060Z,15.57
2023-05-02T07:55:50.476Z,15.46
2023-05-02T07:58:17.897Z,15.36
2023-05-02T08:00:45.528Z,14.98
2023-05-02T08:03:13.022Z,14.83
2023-05-02T08:05:40.578Z,14.84
2023-05-02T08:08:08.157Z,14.89
2023-05-02T08:10:35.539Z,14.94
2023-05-02T08:13:03.049Z,15.01
2023-05-02T08:15:30.816Z,15.11
2023-05-02T08:17:58.312Z,14.98
2023-05-02T08:20:25.802Z,15.31
2023-05-02T08:22:53.268Z,15.41
2023-05-02T08:25:21.016Z,15.53
2023-05-02T08:27:48.358Z,15.45
2023-05-02T08:30:15.938Z,15.69
2023-05-02T08:32:43.508Z,15.94
2023-05-02T08:35:11.058Z,16.28
2023-05-02T08:37:40.039Z,16.25
2023-05-02T08:40:11.884Z,16.26
2023-05-02T08:42:44.091Z,16.12
2023-05-02T08:45:14.881Z,16.32
2023-05-02T08:47:45.919Z,16.33
2023-05-02T08:50:16.228Z,16.22
2023-05-02T08:52:45.364Z,15.75
2023-05-02T08:55:13.663Z,15.48
2023-05-02T08:57:43.546Z,15.32
2023-05-02T09:00:12.017Z,15.43
2023-05-02T09:02:51.605Z,15.20
2023-05-02T09:05:23.561Z,15.60
2023-05-02T09:07:51.997Z,15.96
2023-05-02T09:10:19.653Z,15.74
2023-05-02T09:12:47.167Z,15.87
2023-05-02T09:15:19.892Z,16.22
2023-05-02T09:17:49.123Z,16.21
2023-05-02T09:20:17.089Z,15.72
2023-05-02T09:22:53.574Z,15.17
2023-05-02T09:25:21.752Z,14.87
2023-05-02T09:27:54.411Z,14.80
2023-05-02T09:30:26.605Z,14.68
2023-05-02T09:32:56.113Z,14.56
2023-05-02T09:35:23.921Z,14.69
2023-05-02T09:37:56.368Z,15.13
2023-05-02T09:40:24.733Z,15.35
2023-05-02T09:42:52.730Z,15.65
2023-05-02T09:45:22.393Z,15.67
2023-05-02T09:47:50.703Z,15.78
2023-05-02T09:50:35.182Z,15.88
2023-05-02T09:53:08.696Z,15.98
2023-05-02T09:55:36.543Z,15.94
2023-05-02T09:58:04.199Z,15.73
2023-05-02T10:00:41.569Z,15.61
2023-05-02T10:03:09.725Z,16.01
2023-05-02T10:05:39.216Z,16.20
2023-05-02T10:08:08.544Z,16.68
2023-05-02T10:10:41.211Z,15.71
2023-05-02T10:13:09.712Z,15.52
2023-05-02T10:15:44.137Z,15.59
2023-05-02T10:18:22.180Z,15.80
2023-05-02T10:20:58.664Z,15.90
2023-05-02T10:23:28.346Z,16.02
2023-05-02T10:25:59.405Z,16.10
2023-05-02T10:28:28.730Z,16.20
2023-05-02T10:30:56.341Z,15.98
2023-05-02T10:33:23.996Z,16.08
2023-05-02T10:35:51.637Z,16.16
2023-05-02T10:38:23.317Z,16.19
2023-05-02T10:40:56.587Z,16.13
2023-05-02T10:43:26.037Z,16.02
2023-05-02T10:45:54.851Z,16.11
2023-05-02T10:48:27.406Z,15.87
2023-05-02T10:50:56.220Z,15.51
2023-05-02T10:53:28.836Z,15.70
2023-05-02T10:56:35.430Z,15.74
2023-05-02T10:59:32.644Z,15.97
2023-05-02T11:02:01.712Z,16.16
2023-05-02T11:05:06.670Z,16.56
2023-05-02T11:07:36.048Z,16.77
2023-05-02T11:10:16.193Z,16.67
2023-05-02T11:12:55.406Z,16.43
2023-05-02T11:15:29.443Z,16.21
2023-05-02T11:18:11.998Z,16.35
2023-05-02T11:20:44.584Z,16.17
2023-05-02T11:23:26.309Z,16.04
2023-05-02T11:25:56.362Z,16.06
2023-05-02T11:28:47.964Z,15.90
2023-05-02T11:31:27.950Z,16.00
2023-05-02T11:34:02.520Z,15.90
2023-05-02T11:36:30.893Z,15.48
2023-05-02T11:38:58.357Z,15.44
2023-05-02T11:41:41.156Z,15.35
2023-05-02T11:44:08.800Z,15.46
2023-05-02T11:46:41.778Z,15.99
2023-05-02T11:49:10.576Z,16.26
2023-05-02T11:51:39.174Z,16.27
2023-05-02T11:54:08.100Z,16.09
2023-05-02T11:56:35.936Z,16.03
2023-05-02T11:59:04.632Z,16.17
2023-05-02T12:01:32.179Z,16.34
2023-05-02T12:04:08.016Z,16.45
2023-05-02T12:06:36.110Z,16.32
2023-05-02T12:09:14.362Z,15.99
2023-05-02T12:11:41.862Z,15.09
2023-05-02T12:14:09.595Z,14.75
2023-05-02T12:16:37.366Z,14.69
2023-05-02T12:19:05.780Z,14.37
2023-05-02T12:21:33.586Z,14.46
2023-05-02T12:24:02.383Z,14.81
2023-05-02T12:26:31.931Z,15.44
2023-05-02T12:28:59.513Z,15.74
2023-05-02T12:31:31.603Z,15.20
2023-05-02T12:34:00.430Z,16.17
2023-05-02T12:36:29.567Z,16.75
2023-05-02T12:38:59.916Z,17.01
2023-05-02T12:41:39.173Z,17.06
2023-05-02T12:44:07.934Z,17.03
2023-05-02T12:46:36.275Z,17.08
2023-05-02T12:49:09.879Z,16.98
2023-05-02T12:51:38.117Z,16.17
2023-05-02T12:54:05.609Z,16.24
2023-05-02T12:56:40.538Z,15.97
2023-05-02T12:59:08.359Z,16.22
2023-05-02T13:01:36.348Z,16.41
2023-05-02T13:04:04.380Z,16.74
2023-05-02T13:06:31.963Z,16.62
2023-05-02T13:08:59.647Z,16.57
2023-05-02T13:11:27.083Z,16.46
2023-05-02T13:13:55.234Z,16.75
2023-05-02T13:16:22.724Z,16.34
2023-05-02T13:18:50.436Z,15.87
2023-05-02T13:21:17.931Z,15.85
2023-05-02T13:23:47.866Z,15.47
2023-05-02T13:26:15.285Z,15.89
2023-05-02T13:28:42.780Z,15.92
2023-05-02T13:31:10.383Z,15.49
2023-05-02T13:33:37.871Z,15.56
2023-05-02T13:36:05.530Z,15.71
2023-05-02T13:38:34.187Z,15.71
2023-05-02T13:41:01.653Z,15.99
2023-05-02T13:43:29.101Z,15.56
2023-05-02T13:45:56.674Z,15.68
2023-05-02T13:48:24.146Z,16.42
2023-05-02T13:50:51.643Z,17.08
2023-05-02T13:53:19.180Z,17.77
2023-05-02T13:55:46.773Z,18.34
2023-05-02T13:58:14.246Z,18.78
2023-05-02T14:00:42.030Z,19.27
2023-05-02T14:03:11.467Z,19.23
2023-05-02T14:05:43.969Z,18.99
2023-05-02T14:08:12.241Z,18.68
2023-05-02T14:10:39.729Z,18.23
2023-05-02T14:13:07.302Z,17.97
2023-05-02T14:15:34.850Z,18.10
2023-05-02T14:18:02.345Z,18.39
2023-05-02T14:20:29.897Z,18.48
2023-05-02T14:22:57.254Z,18.56
2023-05-02T14:25:24.707Z,18.05
2023-05-02T14:27:52.246Z,16.99
2023-05-02T14:30:19.676Z,16.41
2023-05-02T14:32:47.216Z,16.33
2023-05-02T14:35:14.829Z,16.66
2023-05-02T14:37:45.131Z,16.83
2023-05-02T14:40:14.142Z,16.56
2023-05-02T14:42:42.096Z,16.61
2023-05-02T14:45:10.547Z,16.94
2023-05-02T14:47:38.096Z,17.13
2023-05-02T14:50:06.443Z,17.17
2023-05-02T14:52:34.028Z,16.70
2023-05-02T14:55:02.582Z,16.13
2023-05-02T14:57:30.461Z,16.40
2023-05-02T14:59:57.985Z,15.79
2023-05-02T15:02:26.192Z,16.03
2023-05-02T15:04:53.704Z,16.01
2023-05-02T15:07:21.823Z,15.50
2023-05-02T15:09:49.314Z,15.51
2023-05-02T15:12:16.818Z,15.44
2023-05-02T15:14:44.251Z,15.58
2023-05-02T15:17:11.789Z,15.28
2023-05-02T15:19:39.259Z,15.20
2023-05-02T15:22:06.819Z,14.59
2023-05-02T15:24:34.268Z,14.14
2023-05-02T15:27:01.930Z,13.91
2023-05-02T15:29:29.705Z,13.77
2023-05-02T15:32:04.349Z,13.49
2023-05-02T15:34:33.765Z,13.40
2023-05-02T15:37:01.467Z,13.20
2023-05-02T15:39:28.977Z,13.01
2023-05-02T15:41:57.071Z,12.97
2023-05-02T15:44:26.320Z,12.88
2023-05-02T15:46:55.266Z,12.78
2023-05-02T15:49:24.614Z,12.77
2023-05-02T15:51:52.069Z,12.75
2023-05-02T15:54:19.478Z,12.66
2023-05-02T15:56:46.969Z,12.68
2023-05-02T15:59:14.474Z,12.74
2023-05-02T16:01:41.912Z,12.74
2023-05-02T16:04:10.164Z,12.76
2023-05-02T16:06:38.499Z,12.77
2023-05-02T16:09:06.773Z,12.74
2023-05-02T16:11:34.382Z,12.73
2023-05-02T16:14:01.913Z,12.66
2023-05-02T16:16:29.446Z,12.50
2023-05-02T16:18:56.956Z,12.45
2023-05-02T16:21:24.371Z,12.50
2023-05-02T16:23:51.869Z,12.49
2023-05-02T16:26:20.859Z,12.53
2023-05-02T16:28:48.375Z,12.51
2023-05-02T16:31:16.207Z,12.58
2023-05-02T16:33:43.771Z,12.66
2023-05-02T16:36:11.281Z,12.73
2023-05-02T16:38:38.752Z,12.69
2023-05-02T16:41:07.298Z,12.64
2023-05-02T16:43:35.059Z,12.56
2023-05-02T16:46:04.604Z,12.40
2023-05-02T16:48:32.863Z,12.37
2023-05-02T16:51:02.523Z,12.47
2023-05-02T16:53:31.572Z,12.39
2023-05-02T16:55:59.948Z,12.42
2023-05-02T16:58:30.424Z,12.36
2023-05-02T17:01:00.222Z,12.26
2023-05-02T17:03:28.972Z,12.28
2023-05-02T17:06:01.333Z,12.19
2023-05-02T17:08:29.355Z,12.16
2023-05-02T17:10:57.066Z,12.25
2023-05-02T17:13:24.643Z,12.24
2023-05-02T17:15:53.753Z,12.15
2023-05-02T17:18:22.101Z,12.15
2023-05-02T17:20:50.161Z,12.15
2023-05-02T17:23:17.735Z,12.04
2023-05-02T17:25:45.416Z,12.04
2023-05-02T17:28:12.941Z,11.93
2023-05-02T17:30:40.388Z,11.95
2023-05-02T17:33:08.377Z,11.95
2023-05-02T17:35:35.835Z,11.90
2023-05-02T17:38:03.407Z,11.82
2023-05-02T17:40:30.977Z,11.56
2023-05-02T17:42:59.461Z,11.52
2023-05-02T17:45:29.179Z,11.51
2023-05-02T17:47:57.258Z,11.49
2023-05-02T17:50:24.838Z,11.50
2023-05-02T17:52:52.443Z,11.46
2023-05-02T17:55:20.052Z,11.45
2023-05-02T17:57:47.625Z,11.34
2023-05-02T18:00:15.455Z,11.35
2023-05-02T18:02:44.125Z,11.35
2023-05-02T18:05:12.116Z,11.28
2023-05-02T18:07:39.589Z,11.24
2023-05-02T18:10:07.719Z,11.23
2023-05-02T18:12:35.915Z,11.19
2023-05-02T18:15:05.313Z,11.18
2023-05-02T18:17:33.353Z,11.11
2023-05-02T18:20:01.155Z,11.08
2023-05-02T18:22:28.856Z,11.13
2023-05-02T18:24:56.321Z,11.09
2023-05-02T18:27:23.775Z,11.11
2023-05-02T18:29:51.554Z,11.12
2023-05-02T18:32:18.992Z,11.03
2023-05-02T18:34:46.571Z,10.96
2023-05-02T18:37:14.196Z,10.97
2023-05-02T18:39:41.618Z,10.98
2023-05-02T18:42:10.565Z,10.94
2023-05-02T18:44:38.160Z,10.92
2023-05-02T18:47:05.673Z,10.78
2023-05-02T18:49:33.174Z,10.75
2023-05-02T18:52:00.621Z,10.74
2023-05-02T18:54:28.860Z,10.66
2023-05-02T18:56:56.544Z,10.64
2023-05-02T18:59:24.001Z,10.61
2023-05-02T19:01:52.112Z,10.60
2023-05-02T19:04:20.327Z,10.57
2023-05-02T19:06:48.076Z,10.57
2023-05-02T19:09:15.950Z,10.51
2023-05-02T19:11:43.344Z,10.59
2023-05-02T19:14:11.992Z,10.47
2023-05-02T19:16:40.661Z,10.44
2023-05-02T19:19:08.601Z,10.39
2023-05-02T19:21:36.245Z,10.36
2023-05-02T19:24:04.070Z,10.33
2023-05-02T19:26:31.929Z,10.30
2023-05-02T19:28:59.435Z,10.27
2023-05-02T19:31:27.135Z,10.24
2023-05-02T19:33:55.071Z,10.19
2023-05-02T19:36:24.348Z,10.24
2023-05-02T19:38:54.114Z,10.20
2023-05-02T19:41:24.944Z,10.18
2023-05-02T19:43:53.121Z,10.12
2023-05-02T19:46:20.843Z,10.08
2023-05-02T19:48:48.586Z,10.06
2023-05-02T19:51:16.048Z,10.08
2023-05-02T19:53:43.544Z,10.02
2023-05-02T19:56:11.126Z,9.91
2023-05-02T19:58:38.572Z,9.79
2023-05-02T20:01:06.012Z,9.72
2023-05-02T20:03:34.894Z,9.65
2023-05-02T20:06:02.743Z,9.61
2023-05-02T20:08:31.630Z,9.47
2023-05-02T20:10:59.044Z,9.38
2023-05-02T20:13:27.323Z,9.28
2023-05-02T20:15:54.906Z,9.19
2023-05-02T20:18:22.413Z,9.17
2023-05-02T20:20:49.942Z,9.11
2023-05-02T20:23:17.422Z,9.00
2023-05-02T20:25:45.593Z,9.05
2023-05-02T20:28:13.538Z,9.04
2023-05-02T20:30:42.127Z,9.01
2023-05-02T20:33:15.500Z,8.92
2023-05-02T20:35:44.468Z,8.98
2023-05-02T20:38:12.183Z,8.95
2023-05-02T20:40:40.874Z,8.93
2023-05-02T20:43:08.945Z,8.98
2023-05-02T20:45:36.433Z,9.07
2023-05-02T20:48:04.081Z,9.01
2023-05-02T20:50:31.632Z,8.99
2023-05-02T20:52:59.542Z,9.05
2023-05-02T20:55:27.708Z,9.05
2023-05-02T20:57:55.274Z,9.02
2023-05-02T21:00:22.868Z,9.06
2023-05-02T21:02:50.782Z,9.07
2023-05-02T21:05:18.413Z,9.07
2023-05-02T21:07:45.938Z,9.04
2023-05-02T21:10:13.699Z,9.09
2023-05-02T21:12:41.276Z,9.13
2023-05-02T21:15:08.890Z,9.11
2023-05-02T21:17:39.371Z,9.10
2023-05-02T21:20:07.658Z,9.08
2023-05-02T21:22:35.116Z,9.16
2023-05-02T21:25:02.586Z,9.13
2023-05-02T21:27:30.332Z,9.16
2023-05-02T21:29:57.767Z,9.19
2023-05-02T21:32:26.028Z,9.22
2023-05-02T21:34:53.543Z,9.16
2023-05-02T21:37:21.013Z,9.21
2023-05-02T21:39:48.496Z,9.23
2023-05-02T21:42:15.897Z,9.21
2023-05-02T21:44:43.313Z,9.15
2023-05-02T21:47:10.822Z,9.15
2023-05-02T21:49:38.329Z,9.17
2023-05-02T21:52:05.742Z,9.17
2023-05-02T21:54:33.396Z,9.21
2023-05-02T21:57:00.838Z,9.23
2023-05-02T21:59:28.389Z,9.19
2023-05-02T22:01:55.903Z,9.14
2023-05-02T22:04:24.965Z,9.12
2023-05-02T22:06:53.118Z,9.10
2023-05-02T22:09:21.088Z,9.10
2023-05-02T22:11:48.516Z,9.10
2023-05-02T22:14:15.998Z,9.12
2023-05-02T22:16:45.687Z,9.07
2023-05-02T22:19:14.742Z,9.06
2023-05-02T22:21:42.266Z,9.00
2023-05-02T22:24:43.928Z,9.01
2023-05-02T22:27:11.398Z,8.98
2023-05-02T22:29:38.835Z,8.98
2023-05-02T22:32:06.397Z,9.00
2023-05-02T22:34:33.957Z,9.01
2023-05-02T22:37:01.496Z,8.98
2023-05-02T22:39:29.099Z,8.95
2023-05-02T22:41:57.318Z,8.98
2023-05-02T22:44:24.770Z,8.94
2023-05-02T22:46:52.246Z,8.92
2023-05-02T22:49:19.888Z,8.91
2023-05-02T22:51:48.180Z,8.86
2023-05-02T22:54:16.886Z,8.84
2023-05-02T22:56:44.428Z,8.85
2023-05-02T22:59:11.866Z,8.90
2023-05-02T23:01:39.352Z,8.94
2023-05-02T23:04:07.204Z,8.89
2023-05-02T23:06:34.722Z,8.78
2023-05-02T23:09:02.209Z,8.73
2023-05-02T23:11:29.877Z,8.75
2023-05-02T23:13:57.335Z,8.76
2023-05-02T23:16:25.321Z,8.75
2023-05-02T23:18:53.098Z,8.78
2023-05-02T23:21:20.568Z,8.77
2023-05-02T23:23:48.097Z,8.77
2023-05-02T23:26:15.532Z,8.72
2023-05-02T23:28:43.006Z,8.69
2023-05-02T23:31:10.599Z,8.70
2023-05-02T23:33:38.372Z,8.68
2023-05-02T23:36:07.358Z,8.71
2023-05-02T23:38:36.241Z,8.73
2023-05-02T23:41:03.963Z,8.72
2023-05-02T23:43:31.502Z,8.71
2023-05-02T23:45:59.046Z,8.68
2023-05-02T23:48:26.488Z,8.65
2023-05-02T23:50:54.308Z,8.58
2023-05-02T23:53:21.797Z,8.58
2023-05-02T23:55:49.210Z,8.53
2023-05-02T23:58:16.753Z,8.48
